PWSweather.com
Personal Weather Stations
Station Observations
KTXDALLA25
Heritage Village Phase Ii, Frisco, TX 75036

Heritage Village Phase IiFrisco, TX 75036

Lat: 33.14465, Lon: -96.873

Elevation: 600

Station Type: Davis Vantage Pro2

http://weather.speedshifter.info

Latest ConditionsUpdated 10:32:29 AM CDT Saturday, Mar 23, 2019
Currently Today's Max Today's Min Today's Average
Temperature 63.5°F17.5°C 65.3°F18.5°C 59.4°F15.2°C 61.8°F16.6°C
Dew Point 56.8°F13.8°C 56.8°F13.8°C 43.9°F6.6°C 48.3°F9.1°C
Winds 2.9 mph S4.7 kmh S 4.0 mph -6.4 kmh - - 1.3 mph 2.1 kmh
Wind Gusts 8.9 mph14.3 kmh 13.0 mph20.9 kmh - -
Humidity 79% 82% 48% 62%
Pressure 30.01 in1016.3 mb 30.02 in1016.6 mb 29.95 in1014.2 mb -
Precipitation - 0.03 in0.8 mm - -
Hour Temp Dew Point Humidity Winds Wind Gusts Pressure Precip Precip Rate Daily Precip Total
10:32 AM 63.5°F17.5°C 56.8°F13.8°C 79% 2.9 mph S4.7 kmh S 8.9 mph14.3 kmh 30.01 in1016.3 mb 0.00 in0.0 mm 0.00 in0.0 mm 0.03 in0.8 mm
10:27 AM 63.7°F17.6°C 56.7°F13.7°C 78% 2.9 mph S4.7 kmh S 10.1 mph16.3 kmh 30.01 in1016.3 mb 0.00 in0.0 mm 0.00 in0.0 mm 0.03 in0.8 mm
10:22 AM 63.9°F17.7°C 56.8°F13.8°C 78% 4.0 mph SSW6.4 kmh SSW 10.1 mph16.3 kmh 30.01 in1016.3 mb 0.00 in0.0 mm 0.00 in0.0 mm 0.03 in0.8 mm
10:17 AM 63.5°F17.5°C 56.8°F13.8°C 79% 4.0 mph S6.4 kmh S 11.0 mph17.7 kmh 30.01 in1016.3 mb 0.00 in0.0 mm 0.00 in0.0 mm 0.03 in0.8 mm
10:12 AM 63.1°F17.3°C 56.5°F13.6°C 79% 2.9 mph SE4.7 kmh SE 8.1 mph13.0 kmh 30.01 in1016.3 mb 0.00 in0.0 mm 0.00 in0.0 mm 0.03 in0.8 mm
10:07 AM 63.0°F17.2°C 56.7°F13.7°C 80% 2.0 mph S3.2 kmh S 8.9 mph14.3 kmh 30.01 in1016.3 mb 0.01 in0.3 mm 0.00 in0.0 mm 0.03 in0.8 mm
10:02 AM 62.4°F16.9°C 56.5°F13.6°C 81% 2.0 mph SSW3.2 kmh SSW 6.9 mph11.1 kmh 30.02 in1016.6 mb 0.03 in0.8 mm 0.00 in0.0 mm 0.03 in0.8 mm
09:57 AM 62.1°F16.7°C 56.1°F13.4°C 81% 2.9 mph SW4.7 kmh SW 8.9 mph14.3 kmh 30.01 in1016.3 mb 0.03 in0.8 mm 0.00 in0.0 mm 0.03 in0.8 mm
09:52 AM 61.5°F16.4°C 55.6°F13.1°C 81% 2.9 mph SSW4.7 kmh SSW 8.1 mph13.0 kmh 30.01 in1016.3 mb 0.03 in0.8 mm 0.00 in0.0 mm 0.03 in0.8 mm
09:47 AM 61.2°F16.2°C 55.6°F13.1°C 82% 2.9 mph SW4.7 kmh SW 8.9 mph14.3 kmh 30.01 in1016.3 mb 0.03 in0.8 mm 0.00 in0.0 mm 0.03 in0.8 mm
09:42 AM 60.4°F15.8°C 54.5°F12.5°C 81% 2.0 mph S3.2 kmh S 6.9 mph11.1 kmh 30.01 in1016.3 mb 0.03 in0.8 mm 0.00 in0.0 mm 0.03 in0.8 mm
09:37 AM 60.3°F15.7°C 54.3°F12.4°C 81% 2.0 mph S3.2 kmh S 6.0 mph9.7 kmh 30.01 in1016.3 mb 0.03 in0.8 mm 0.00 in0.0 mm 0.03 in0.8 mm
09:32 AM 60.1°F15.6°C 54.3°F12.4°C 81% 2.0 mph S3.2 kmh S 8.9 mph14.3 kmh 30.01 in1016.3 mb 0.03 in0.8 mm 0.00 in0.0 mm 0.03 in0.8 mm
09:27 AM 60.1°F15.6°C 53.6°F12.0°C 79% 0.9 mph SSE1.4 kmh SSE 6.0 mph9.7 kmh 30.01 in1016.3 mb 0.03 in0.8 mm 0.00 in0.0 mm 0.03 in0.8 mm
09:22 AM 60.1°F15.6°C 53.6°F12.0°C 79% 0.9 mph S1.4 kmh S 4.9 mph7.9 kmh 30.01 in1016.3 mb 0.03 in0.8 mm 0.00 in0.0 mm 0.03 in0.8 mm
09:16 AM 60.3°F15.7°C 53.1°F11.7°C 77% 0.9 mph S1.4 kmh S 6.9 mph11.1 kmh 30.01 in1016.3 mb 0.03 in0.8 mm 0.00 in0.0 mm 0.03 in0.8 mm
09:11 AM 60.6°F15.9°C 53.1°F11.7°C 76% 2.0 mph S3.2 kmh S 6.0 mph9.7 kmh 30.02 in1016.6 mb 0.03 in0.8 mm 0.12 in3.0 mm 0.03 in0.8 mm
09:06 AM 61.3°F16.3°C 53.1°F11.7°C 74% 4.0 mph S6.4 kmh S 10.1 mph16.3 kmh 30.02 in1016.6 mb 0.02 in0.5 mm 0.24 in6.1 mm 0.02 in0.5 mm
09:01 AM 61.7°F16.5°C 52.2°F11.2°C 71% 4.0 mph SSW6.4 kmh SSW 11.0 mph17.7 kmh 30.01 in1016.3 mb 0.00 in0.0 mm 0.00 in0.0 mm 0.00 in0.0 mm
08:56 AM 62.1°F16.7°C 51.8°F11.0°C 69% 4.0 mph SSW6.4 kmh SSW 8.9 mph14.3 kmh 30.01 in1016.3 mb 0.00 in0.0 mm 0.00 in0.0 mm 0.00 in0.0 mm
08:51 AM 62.1°F16.7°C 50.5°F10.3°C 66% 2.9 mph SE4.7 kmh SE 8.9 mph14.3 kmh 30.01 in1016.3 mb 0.00 in0.0 mm 0.00 in0.0 mm 0.00 in0.0 mm
08:46 AM 62.1°F16.7°C 50.5°F10.3°C 66% 2.9 mph SW4.7 kmh SW 10.1 mph16.3 kmh 30.01 in1016.3 mb 0.00 in0.0 mm 0.00 in0.0 mm 0.00 in0.0 mm
08:41 AM 62.1°F16.7°C 50.2°F10.1°C 65% 2.9 mph S4.7 kmh S 6.9 mph11.1 kmh 30.00 in1015.9 mb 0.00 in0.0 mm 0.00 in0.0 mm 0.00 in0.0 mm
08:36 AM 62.1°F16.7°C 49.8°F9.9°C 64% 2.9 mph SSE4.7 kmh SSE 8.1 mph13.0 kmh 30.00 in1015.9 mb 0.00 in0.0 mm 0.00 in0.0 mm 0.00 in0.0 mm
08:31 AM 62.1°F16.7°C 49.3°F9.6°C 63% 2.9 mph S4.7 kmh S 13.0 mph20.9 kmh 30.00 in1015.9 mb 0.00 in0.0 mm 0.00 in0.0 mm 0.00 in0.0 mm
08:26 AM 62.1°F16.7°C 48.9°F9.4°C 62% 2.9 mph S4.7 kmh S 8.9 mph14.3 kmh 30.00 in1015.9 mb 0.00 in0.0 mm 0.00 in0.0 mm 0.00 in0.0 mm
08:21 AM 61.9°F16.6°C 48.7°F9.3°C 62% 2.9 mph SSE4.7 kmh SSE 8.9 mph14.3 kmh 30.00 in1015.9 mb 0.00 in0.0 mm 0.00 in0.0 mm 0.00 in0.0 mm
08:16 AM 61.9°F16.6°C 48.7°F9.3°C 62% 2.9 mph S4.7 kmh S 8.1 mph13.0 kmh 30.00 in1015.9 mb 0.00 in0.0 mm 0.00 in0.0 mm 0.00 in0.0 mm
08:11 AM 61.7°F16.5°C 48.6°F9.2°C 62% 2.9 mph S4.7 kmh S 8.1 mph13.0 kmh 29.99 in1015.6 mb 0.00 in0.0 mm 0.00 in0.0 mm 0.00 in0.0 mm
08:06 AM 61.5°F16.4°C 48.4°F9.1°C 62% 2.9 mph SSW4.7 kmh SSW 8.9 mph14.3 kmh 30.00 in1015.9 mb 0.00 in0.0 mm 0.00 in0.0 mm 0.00 in0.0 mm
08:01 AM 61.5°F16.4°C 48.4°F9.1°C 62% 2.9 mph SSE4.7 kmh SSE 6.0 mph9.7 kmh 30.00 in1015.9 mb 0.00 in0.0 mm 0.00 in0.0 mm 0.00 in0.0 mm
07:56 AM 61.7°F16.5°C 48.6°F9.2°C 62% 2.9 mph S4.7 kmh S 8.9 mph14.3 kmh 30.00 in1015.9 mb 0.00 in0.0 mm 0.00 in0.0 mm 0.00 in0.0 mm
07:51 AM 61.9°F16.6°C 49.1°F9.5°C 63% 2.0 mph S3.2 kmh S 8.1 mph13.0 kmh 30.00 in1015.9 mb 0.00 in0.0 mm 0.00 in0.0 mm 0.00 in0.0 mm
07:46 AM 61.9°F16.6°C 48.2°F9.0°C 61% 2.9 mph S4.7 kmh S 6.9 mph11.1 kmh 30.00 in1015.9 mb 0.00 in0.0 mm 0.00 in0.0 mm 0.00 in0.0 mm
07:41 AM 61.9°F16.6°C 47.8°F8.8°C 60% 2.9 mph S4.7 kmh S 6.9 mph11.1 kmh 30.00 in1015.9 mb 0.00 in0.0 mm 0.00 in0.0 mm 0.00 in0.0 mm
07:36 AM 61.9°F16.6°C 47.5°F8.6°C 59% 2.0 mph S3.2 kmh S 8.1 mph13.0 kmh 29.99 in1015.6 mb 0.00 in0.0 mm 0.00 in0.0 mm 0.00 in0.0 mm
07:31 AM 61.7°F16.5°C 47.3°F8.5°C 59% 0.9 mph S1.4 kmh S 4.9 mph7.9 kmh 29.99 in1015.6 mb 0.00 in0.0 mm 0.00 in0.0 mm 0.00 in0.0 mm
07:26 AM 61.7°F16.5°C 47.3°F8.5°C 59% 0.9 mph S1.4 kmh S 6.0 mph9.7 kmh 29.99 in1015.6 mb 0.00 in0.0 mm 0.00 in0.0 mm 0.00 in0.0 mm
07:20 AM 61.7°F16.5°C 47.3°F8.5°C 59% 0.9 mph SSE1.4 kmh SSE 4.0 mph6.4 kmh 29.99 in1015.6 mb 0.00 in0.0 mm 0.00 in0.0 mm 0.00 in0.0 mm
07:15 AM 61.7°F16.5°C 47.3°F8.5°C 59% 0.9 mph SSE1.4 kmh SSE 4.9 mph7.9 kmh 29.99 in1015.6 mb 0.00 in0.0 mm 0.00 in0.0 mm 0.00 in0.0 mm
07:10 AM 61.5°F16.4°C 47.1°F8.4°C 59% 0.9 mph S1.4 kmh S 4.9 mph7.9 kmh 29.99 in1015.6 mb 0.00 in0.0 mm 0.00 in0.0 mm 0.00 in0.0 mm
07:05 AM 61.5°F16.4°C 47.1°F8.4°C 59% 0.9 mph SSE1.4 kmh SSE 4.9 mph7.9 kmh 29.99 in1015.6 mb 0.00 in0.0 mm 0.00 in0.0 mm 0.00 in0.0 mm
07:00 AM 61.5°F16.4°C 47.1°F8.4°C 59% Calm Calm 2.0 mph3.2 kmh 29.99 in1015.6 mb 0.00 in0.0 mm 0.00 in0.0 mm 0.00 in0.0 mm
06:55 AM 61.5°F16.4°C 47.1°F8.4°C 59% 0.9 mph SSE1.4 kmh SSE 2.9 mph4.7 kmh 29.99 in1015.6 mb 0.00 in0.0 mm 0.00 in0.0 mm 0.00 in0.0 mm
06:49 AM 61.3°F16.3°C 47.3°F8.5°C 60% 0.9 mph SSE1.4 kmh SSE 4.0 mph6.4 kmh 29.98 in1015.2 mb 0.00 in0.0 mm 0.00 in0.0 mm 0.00 in0.0 mm
06:44 AM 61.3°F16.3°C 47.3°F8.5°C 60% 0.9 mph SSE1.4 kmh SSE 4.9 mph7.9 kmh 29.98 in1015.2 mb 0.00 in0.0 mm 0.00 in0.0 mm 0.00 in0.0 mm
06:39 AM 61.3°F16.3°C 47.3°F8.5°C 60% Calm Calm 4.0 mph6.4 kmh 29.98 in1015.2 mb 0.00 in0.0 mm 0.00 in0.0 mm 0.00 in0.0 mm
06:34 AM 61.5°F16.4°C 47.5°F8.6°C 60% 0.9 mph S1.4 kmh S 2.0 mph3.2 kmh 29.98 in1015.2 mb 0.00 in0.0 mm 0.00 in0.0 mm 0.00 in0.0 mm
06:29 AM 61.5°F16.4°C 47.5°F8.6°C 60% 2.0 mph S3.2 kmh S 6.0 mph9.7 kmh 29.98 in1015.2 mb 0.00 in0.0 mm 0.00 in0.0 mm 0.00 in0.0 mm
06:24 AM 61.5°F16.4°C 47.5°F8.6°C 60% 0.9 mph S1.4 kmh S 4.0 mph6.4 kmh 29.97 in1014.9 mb 0.00 in0.0 mm 0.00 in0.0 mm 0.00 in0.0 mm
06:19 AM 61.7°F16.5°C 47.7°F8.7°C 60% 0.9 mph S1.4 kmh S 4.0 mph6.4 kmh 29.98 in1015.2 mb 0.00 in0.0 mm 0.00 in0.0 mm 0.00 in0.0 mm
06:14 AM 61.9°F16.6°C 48.2°F9.0°C 61% 2.0 mph S3.2 kmh S 4.9 mph7.9 kmh 29.98 in1015.2 mb 0.00 in0.0 mm 0.00 in0.0 mm 0.00 in0.0 mm
06:09 AM 61.9°F16.6°C 48.2°F9.0°C 61% 0.9 mph S1.4 kmh S 6.9 mph11.1 kmh 29.97 in1014.9 mb 0.00 in0.0 mm 0.00 in0.0 mm 0.00 in0.0 mm
06:04 AM 61.7°F16.5°C 48.2°F9.0°C 61% 0.9 mph SSW1.4 kmh SSW 6.0 mph9.7 kmh 29.97 in1014.9 mb 0.00 in0.0 mm 0.00 in0.0 mm 0.00 in0.0 mm
05:59 AM 61.7°F16.5°C 48.6°F9.2°C 62% 2.0 mph S3.2 kmh S 6.0 mph9.7 kmh 29.97 in1014.9 mb 0.00 in0.0 mm 0.00 in0.0 mm 0.00 in0.0 mm
05:54 AM 61.5°F16.4°C 48.4°F9.1°C 62% 2.0 mph SSW3.2 kmh SSW 6.9 mph11.1 kmh 29.97 in1014.9 mb 0.00 in0.0 mm 0.00 in0.0 mm 0.00 in0.0 mm
05:49 AM 61.7°F16.5°C 48.6°F9.2°C 62% 0.9 mph S1.4 kmh S 4.9 mph7.9 kmh 29.96 in1014.6 mb 0.00 in0.0 mm 0.00 in0.0 mm 0.00 in0.0 mm
05:44 AM 61.9°F16.6°C 48.7°F9.3°C 62% 2.9 mph SSE4.7 kmh SSE 6.0 mph9.7 kmh 29.96 in1014.6 mb 0.00 in0.0 mm 0.00 in0.0 mm 0.00 in0.0 mm
05:39 AM 61.9°F16.6°C 48.7°F9.3°C 62% 4.0 mph S6.4 kmh S 8.1 mph13.0 kmh 29.96 in1014.6 mb 0.00 in0.0 mm 0.00 in0.0 mm 0.00 in0.0 mm
05:34 AM 61.9°F16.6°C 48.7°F9.3°C 62% 2.9 mph SSW4.7 kmh SSW 8.1 mph13.0 kmh 29.96 in1014.6 mb 0.00 in0.0 mm 0.00 in0.0 mm 0.00 in0.0 mm
05:29 AM 61.9°F16.6°C 48.7°F9.3°C 62% 2.9 mph S4.7 kmh S 10.1 mph16.3 kmh 29.95 in1014.2 mb 0.00 in0.0 mm 0.00 in0.0 mm 0.00 in0.0 mm
05:24 AM 62.1°F16.7°C 48.9°F9.4°C 62% 2.9 mph SSE4.7 kmh SSE 11.0 mph17.7 kmh 29.95 in1014.2 mb 0.00 in0.0 mm 0.00 in0.0 mm 0.00 in0.0 mm
05:19 AM 62.1°F16.7°C 48.9°F9.4°C 62% 2.9 mph SE4.7 kmh SE 8.1 mph13.0 kmh 29.95 in1014.2 mb 0.00 in0.0 mm 0.00 in0.0 mm 0.00 in0.0 mm
05:14 AM 62.1°F16.7°C 48.9°F9.4°C 62% 2.9 mph S4.7 kmh S 6.9 mph11.1 kmh 29.96 in1014.6 mb 0.00 in0.0 mm 0.00 in0.0 mm 0.00 in0.0 mm
05:09 AM 62.1°F16.7°C 48.9°F9.4°C 62% 2.9 mph S4.7 kmh S 8.9 mph14.3 kmh 29.96 in1014.6 mb 0.00 in0.0 mm 0.00 in0.0 mm 0.00 in0.0 mm
05:04 AM 62.1°F16.7°C 48.9°F9.4°C 62% 2.9 mph S4.7 kmh S 8.9 mph14.3 kmh 29.96 in1014.6 mb 0.00 in0.0 mm 0.00 in0.0 mm 0.00 in0.0 mm
04:59 AM 61.9°F16.6°C 48.7°F9.3°C 62% 2.0 mph SSE3.2 kmh SSE 8.1 mph13.0 kmh 29.96 in1014.6 mb 0.00 in0.0 mm 0.00 in0.0 mm 0.00 in0.0 mm
04:54 AM 61.9°F16.6°C 48.2°F9.0°C 61% 0.9 mph S1.4 kmh S 6.0 mph9.7 kmh 29.96 in1014.6 mb 0.00 in0.0 mm 0.00 in0.0 mm 0.00 in0.0 mm
04:49 AM 61.9°F16.6°C 47.8°F8.8°C 60% 0.9 mph SSE1.4 kmh SSE 4.0 mph6.4 kmh 29.96 in1014.6 mb 0.00 in0.0 mm 0.00 in0.0 mm 0.00 in0.0 mm
04:44 AM 61.9°F16.6°C 47.8°F8.8°C 60% 0.9 mph SSE1.4 kmh SSE 4.9 mph7.9 kmh 29.96 in1014.6 mb 0.00 in0.0 mm 0.00 in0.0 mm 0.00 in0.0 mm
04:39 AM 61.9°F16.6°C 47.8°F8.8°C 60% Calm Calm 4.0 mph6.4 kmh 29.96 in1014.6 mb 0.00 in0.0 mm 0.00 in0.0 mm 0.00 in0.0 mm
04:34 AM 61.9°F16.6°C 47.5°F8.6°C 59% Calm Calm 4.9 mph7.9 kmh 29.96 in1014.6 mb 0.00 in0.0 mm 0.00 in0.0 mm 0.00 in0.0 mm
04:28 AM 62.1°F16.7°C 47.5°F8.6°C 59% 0.9 mph SSE1.4 kmh SSE 4.0 mph6.4 kmh 29.96 in1014.6 mb 0.00 in0.0 mm 0.00 in0.0 mm 0.00 in0.0 mm
04:23 AM 62.1°F16.7°C 47.5°F8.6°C 59% 0.9 mph SSE1.4 kmh SSE 4.0 mph6.4 kmh 29.96 in1014.6 mb 0.00 in0.0 mm 0.00 in0.0 mm 0.00 in0.0 mm
04:18 AM 62.2°F16.8°C 47.3°F8.5°C 58% 2.0 mph SSE3.2 kmh SSE 4.0 mph6.4 kmh 29.96 in1014.6 mb 0.00 in0.0 mm 0.00 in0.0 mm 0.00 in0.0 mm
04:13 AM 62.4°F16.9°C 47.5°F8.6°C 58% 0.9 mph SSE1.4 kmh SSE 6.0 mph9.7 kmh 29.96 in1014.6 mb 0.00 in0.0 mm 0.00 in0.0 mm 0.00 in0.0 mm
04:08 AM 62.6°F17.0°C 47.7°F8.7°C 58% 0.9 mph SSE1.4 kmh SSE 4.0 mph6.4 kmh 29.96 in1014.6 mb 0.00 in0.0 mm 0.00 in0.0 mm 0.00 in0.0 mm
04:03 AM 62.6°F17.0°C 47.7°F8.7°C 58% 0.9 mph SSE1.4 kmh SSE 4.9 mph7.9 kmh 29.96 in1014.6 mb 0.00 in0.0 mm 0.00 in0.0 mm 0.00 in0.0 mm
03:58 AM 62.6°F17.0°C 47.7°F8.7°C 58% 2.0 mph SSE3.2 kmh SSE 4.0 mph6.4 kmh 29.97 in1014.9 mb 0.00 in0.0 mm 0.00 in0.0 mm 0.00 in0.0 mm
03:53 AM 62.4°F16.9°C 47.5°F8.6°C 58% 0.9 mph SSE1.4 kmh SSE 4.9 mph7.9 kmh 29.96 in1014.6 mb 0.00 in0.0 mm 0.00 in0.0 mm 0.00 in0.0 mm
03:47 AM 62.2°F16.8°C 47.3°F8.5°C 58% 0.9 mph SSE1.4 kmh SSE 4.0 mph6.4 kmh 29.97 in1014.9 mb 0.00 in0.0 mm 0.00 in0.0 mm 0.00 in0.0 mm
03:42 AM 62.2°F16.8°C 47.3°F8.5°C 58% 2.0 mph SSE3.2 kmh SSE 6.0 mph9.7 kmh 29.97 in1014.9 mb 0.00 in0.0 mm 0.00 in0.0 mm 0.00 in0.0 mm
03:37 AM 61.9°F16.6°C 46.9°F8.3°C 58% 0.9 mph SE1.4 kmh SE 4.9 mph7.9 kmh 29.97 in1014.9 mb 0.00 in0.0 mm 0.00 in0.0 mm 0.00 in0.0 mm
03:32 AM 61.5°F16.4°C 47.1°F8.4°C 59% Calm Calm 2.9 mph4.7 kmh 29.97 in1014.9 mb 0.00 in0.0 mm 0.00 in0.0 mm 0.00 in0.0 mm
03:27 AM 61.3°F16.3°C 46.9°F8.3°C 59% Calm Calm 2.9 mph4.7 kmh 29.97 in1014.9 mb 0.00 in0.0 mm 0.00 in0.0 mm 0.00 in0.0 mm
03:22 AM 61.0°F16.1°C 46.9°F8.3°C 60% Calm Calm 2.9 mph4.7 kmh 29.97 in1014.9 mb 0.00 in0.0 mm 0.00 in0.0 mm 0.00 in0.0 mm
03:17 AM 60.6°F15.9°C 46.6°F8.1°C 60% Calm Calm 4.9 mph7.9 kmh 29.98 in1015.2 mb 0.00 in0.0 mm 0.00 in0.0 mm 0.00 in0.0 mm
03:12 AM 60.4°F15.8°C 46.4°F8.0°C 60% Calm Calm -- 29.98 in1015.2 mb 0.00 in0.0 mm 0.00 in0.0 mm 0.00 in0.0 mm
03:06 AM 60.3°F15.7°C 46.8°F8.2°C 61% Calm Calm -- 29.98 in1015.2 mb 0.00 in0.0 mm 0.00 in0.0 mm 0.00 in0.0 mm
03:01 AM 60.1°F15.6°C 46.6°F8.1°C 61% Calm Calm 0.9 mph1.4 kmh 29.98 in1015.2 mb 0.00 in0.0 mm 0.00 in0.0 mm 0.00 in0.0 mm
02:56 AM 59.7°F15.4°C 45.9°F7.7°C 60% Calm Calm -- 29.99 in1015.6 mb 0.00 in0.0 mm 0.00 in0.0 mm 0.00 in0.0 mm
02:51 AM 59.7°F15.4°C 45.9°F7.7°C 60% Calm Calm -- 29.99 in1015.6 mb 0.00 in0.0 mm 0.00 in0.0 mm 0.00 in0.0 mm
02:46 AM 59.5°F15.3°C 45.7°F7.6°C 60% Calm Calm -- 29.99 in1015.6 mb 0.00 in0.0 mm 0.00 in0.0 mm 0.00 in0.0 mm
02:41 AM 59.5°F15.3°C 46.0°F7.8°C 61% Calm Calm -- 29.99 in1015.6 mb 0.00 in0.0 mm 0.00 in0.0 mm 0.00 in0.0 mm
02:36 AM 59.4°F15.2°C 45.5°F7.5°C 60% Calm Calm 0.9 mph1.4 kmh 29.99 in1015.6 mb 0.00 in0.0 mm 0.00 in0.0 mm 0.00 in0.0 mm
02:31 AM 59.4°F15.2°C 45.5°F7.5°C 60% Calm Calm -- 29.99 in1015.6 mb 0.00 in0.0 mm 0.00 in0.0 mm 0.00 in0.0 mm
02:25 AM 59.4°F15.2°C 45.0°F7.2°C 59% Calm Calm -- 29.99 in1015.6 mb 0.00 in0.0 mm 0.00 in0.0 mm 0.00 in0.0 mm
02:20 AM 59.4°F15.2°C 45.0°F7.2°C 59% Calm Calm -- 29.99 in1015.6 mb 0.00 in0.0 mm 0.00 in0.0 mm 0.00 in0.0 mm
02:15 AM 59.5°F15.3°C 44.8°F7.1°C 58% Calm Calm -- 29.99 in1015.6 mb 0.00 in0.0 mm 0.00 in0.0 mm 0.00 in0.0 mm
02:10 AM 59.7°F15.4°C 45.0°F7.2°C 58% Calm Calm -- 29.99 in1015.6 mb 0.00 in0.0 mm 0.00 in0.0 mm 0.00 in0.0 mm
02:05 AM 60.1°F15.6°C 44.8°F7.1°C 57% Calm Calm -- 29.99 in1015.6 mb 0.00 in0.0 mm 0.00 in0.0 mm 0.00 in0.0 mm
02:00 AM 60.3°F15.7°C 44.4°F6.9°C 56% Calm Calm -- 29.99 in1015.6 mb 0.00 in0.0 mm 0.00 in0.0 mm 0.00 in0.0 mm
01:54 AM 60.6°F15.9°C 43.9°F6.6°C 54% Calm Calm -- 29.99 in1015.6 mb 0.00 in0.0 mm 0.00 in0.0 mm 0.00 in0.0 mm
01:49 AM 61.0°F16.1°C 44.8°F7.1°C 55% Calm Calm -- 29.98 in1015.2 mb 0.00 in0.0 mm 0.00 in0.0 mm 0.00 in0.0 mm
01:44 AM 61.2°F16.2°C 44.8°F7.1°C 55% Calm Calm -- 29.98 in1015.2 mb 0.00 in0.0 mm 0.00 in0.0 mm 0.00 in0.0 mm
01:39 AM 61.3°F16.3°C 44.6°F7.0°C 54% Calm Calm -- 29.98 in1015.2 mb 0.00 in0.0 mm 0.00 in0.0 mm 0.00 in0.0 mm
01:34 AM 61.5°F16.4°C 45.1°F7.3°C 55% Calm Calm -- 29.98 in1015.2 mb 0.00 in0.0 mm 0.00 in0.0 mm 0.00 in0.0 mm
01:29 AM 61.9°F16.6°C 45.1°F7.3°C 54% Calm Calm -- 29.97 in1014.9 mb 0.00 in0.0 mm 0.00 in0.0 mm 0.00 in0.0 mm
01:24 AM 61.9°F16.6°C 45.1°F7.3°C 54% Calm Calm -- 29.96 in1014.6 mb 0.00 in0.0 mm 0.00 in0.0 mm 0.00 in0.0 mm
01:19 AM 62.1°F16.7°C 45.1°F7.3°C 54% Calm Calm -- 29.97 in1014.9 mb 0.00 in0.0 mm 0.00 in0.0 mm 0.00 in0.0 mm
01:13 AM 62.2°F16.8°C 45.3°F7.4°C 54% Calm Calm -- 29.97 in1014.9 mb 0.00 in0.0 mm 0.00 in0.0 mm 0.00 in0.0 mm
01:08 AM 62.2°F16.8°C 45.3°F7.4°C 54% Calm Calm -- 29.97 in1014.9 mb 0.00 in0.0 mm 0.00 in0.0 mm 0.00 in0.0 mm
01:03 AM 62.2°F16.8°C 45.3°F7.4°C 54% Calm Calm -- 29.97 in1014.9 mb 0.00 in0.0 mm 0.00 in0.0 mm 0.00 in0.0 mm
12:58 AM 62.6°F17.0°C 45.1°F7.3°C 53% Calm Calm -- 29.97 in1014.9 mb 0.00 in0.0 mm 0.00 in0.0 mm 0.00 in0.0 mm
12:53 AM 63.0°F17.2°C 45.1°F7.3°C 52% Calm Calm -- 29.98 in1015.2 mb 0.00 in0.0 mm 0.00 in0.0 mm 0.00 in0.0 mm
12:48 AM 63.1°F17.3°C 45.1°F7.3°C 52% Calm Calm -- 29.98 in1015.2 mb 0.00 in0.0 mm 0.00 in0.0 mm 0.00 in0.0 mm
12:43 AM 63.3°F17.4°C 45.0°F7.2°C 51% Calm Calm -- 29.97 in1014.9 mb 0.00 in0.0 mm 0.00 in0.0 mm 0.00 in0.0 mm
12:37 AM 63.7°F17.6°C 45.1°F7.3°C 51% Calm Calm -- 29.98 in1015.2 mb 0.00 in0.0 mm 0.00 in0.0 mm 0.00 in0.0 mm
12:32 AM 63.7°F17.6°C 45.1°F7.3°C 51% Calm Calm -- 29.98 in1015.2 mb 0.00 in0.0 mm 0.00 in0.0 mm 0.00 in0.0 mm
12:27 AM 63.9°F17.7°C 45.3°F7.4°C 51% Calm Calm -- 29.98 in1015.2 mb 0.00 in0.0 mm 0.00 in0.0 mm 0.00 in0.0 mm
12:22 AM 64.0°F17.8°C 45.0°F7.2°C 50% Calm Calm -- 29.98 in1015.2 mb 0.00 in0.0 mm 0.00 in0.0 mm 0.00 in0.0 mm
12:17 AM 64.4°F18.0°C 44.8°F7.1°C 49% Calm Calm -- 29.98 in1015.2 mb 0.00 in0.0 mm 0.00 in0.0 mm 0.00 in0.0 mm
12:11 AM 64.8°F18.2°C 45.1°F7.3°C 49% Calm Calm -- 29.98 in1015.2 mb 0.00 in0.0 mm 0.00 in0.0 mm 0.00 in0.0 mm
12:06 AM 64.9°F18.3°C 44.8°F7.1°C 48% Calm Calm -- 29.98 in1015.2 mb 0.00 in0.0 mm 0.00 in0.0 mm 0.00 in0.0 mm
12:01 AM 65.3°F18.5°C 45.1°F7.3°C 48% Calm Calm -- 29.99 in1015.6 mb 0.00 in0.0 mm 0.00 in0.0 mm 0.00 in0.0 mm